createdAt,value
2022-10-05T00:02:47.664Z,73.61
2022-10-05T00:06:40.825Z,73.62
2022-10-05T00:10:40.301Z,73.79
2022-10-05T00:22:41.642Z,73.61
2022-10-05T00:26:36.596Z,73.01
2022-10-05T00:30:28.027Z,73.03
2022-10-05T00:34:20.220Z,73.17
2022-10-05T01:14:09.257Z,74.27
2022-10-05T01:18:03.362Z,74.59
2022-10-05T01:22:07.000Z,74.71
2022-10-05T01:26:24.060Z,74.77
2022-10-05T01:30:25.061Z,74.82
2022-10-05T01:34:20.984Z,74.91
2022-10-05T01:38:16.713Z,74.56
2022-10-05T01:42:22.829Z,74.50
2022-10-05T01:46:17.017Z,74.80
2022-10-05T01:50:10.208Z,74.97
2022-10-05T01:54:07.889Z,75.13
2022-10-05T01:58:11.737Z,74.83
2022-10-05T02:02:12.154Z,75.09
2022-10-05T02:06:12.941Z,74.86
2022-10-05T02:10:07.384Z,74.43
2022-10-05T02:14:24.146Z,74.82
2022-10-05T02:18:22.674Z,75.19
2022-10-05T02:22:13.473Z,74.43
2022-10-05T02:26:09.346Z,74.43
2022-10-05T02:30:03.915Z,74.34
2022-10-05T02:37:49.983Z,74.60
2022-10-05T02:42:00.589Z,74.53
2022-10-05T02:45:58.570Z,74.53
2022-10-05T02:49:58.879Z,74.56
2022-10-05T02:54:06.196Z,74.12
2022-10-05T02:58:04.528Z,74.23
2022-10-05T03:01:52.678Z,74.50
2022-10-05T03:05:54.216Z,74.79
2022-10-05T03:09:48.035Z,74.70
2022-10-05T03:13:42.294Z,74.62
2022-10-05T03:18:03.117Z,74.87
2022-10-05T03:22:03.633Z,75.09
2022-10-05T03:26:02.360Z,75.19
2022-10-05T03:30:00.387Z,75.19
2022-10-05T03:34:00.532Z,75.18
2022-10-05T03:37:56.678Z,75.61
2022-10-05T03:42:06.598Z,75.57
2022-10-05T03:46:04.929Z,75.71
2022-10-05T03:49:55.841Z,75.69
2022-10-05T03:53:58.611Z,75.15
2022-10-05T03:57:52.103Z,75.37
2022-10-05T04:01:43.968Z,75.75
2022-10-05T04:05:38.222Z,75.28
2022-10-05T04:09:38.776Z,75.25
2022-10-05T04:13:49.859Z,75.63
2022-10-05T04:17:47.530Z,75.71
2022-10-05T04:21:39.598Z,75.22
2022-10-05T04:25:35.134Z,75.31
2022-10-05T04:29:37.924Z,75.12
2022-10-05T04:33:39.409Z,75.85
2022-10-05T04:37:36.997Z,76.18
2022-10-05T04:41:38.247Z,76.22
2022-10-05T04:45:38.867Z,76.37
2022-10-05T04:50:05.022Z,76.42
2022-10-05T04:54:07.331Z,76.44
2022-10-05T04:58:02.205Z,76.55
2022-10-05T05:02:06.990Z,76.57
2022-10-05T05:06:20.939Z,76.71
2022-10-05T05:10:27.394Z,76.67
2022-10-05T05:14:30.126Z,77.46
2022-10-05T05:18:43.370Z,77.88
2022-10-05T05:22:40.943Z,77.17
2022-10-05T05:26:39.187Z,77.39
2022-10-05T05:30:30.755Z,77.94
2022-10-05T05:34:24.841Z,77.87
2022-10-05T05:38:29.021Z,78.23
2022-10-05T05:42:25.481Z,78.57
2022-10-05T05:46:51.164Z,78.43
2022-10-05T05:50:38.790Z,78.66
2022-10-05T05:54:33.075Z,78.44
2022-10-05T05:58:36.959Z,78.58
2022-10-05T06:02:38.798Z,78.48
2022-10-05T06:06:37.055Z,78.61
2022-10-05T06:10:41.375Z,79.03
2022-10-05T06:14:34.792Z,78.81
2022-10-05T06:18:27.594Z,78.92
2022-10-05T06:22:39.932Z,78.75
2022-10-05T06:26:35.095Z,78.77
2022-10-05T06:30:35.115Z,78.25
2022-10-05T06:34:29.471Z,78.09
2022-10-05T06:38:43.414Z,78.62
2022-10-05T06:42:24.862Z,78.56
2022-10-05T06:46:19.410Z,78.02
2022-10-05T06:50:30.631Z,77.55
2022-10-05T06:54:37.713Z,77.06
2022-10-05T06:58:27.551Z,76.79
2022-10-05T07:02:34.120Z,76.65
2022-10-05T07:06:59.649Z,75.78
2022-10-05T08:43:19.015Z,51.92
2022-10-05T08:46:20.288Z,51.67
2022-10-05T08:49:19.799Z,51.75
2022-10-05T08:52:08.819Z,49.42
2022-10-05T08:55:10.909Z,51.21
2022-10-05T08:57:55.686Z,49.63
2022-10-05T09:00:38.113Z,48.71
2022-10-05T09:04:05.210Z,48.40
2022-10-05T09:07:04.270Z,48.17
2022-10-05T09:10:17.239Z,46.71
2022-10-05T09:13:19.159Z,46.00
2022-10-05T09:16:17.562Z,44.15
2022-10-05T09:19:09.586Z,43.27
2022-10-05T09:21:49.652Z,43.32
2022-10-05T09:24:41.293Z,43.39
2022-10-05T09:27:18.282Z,44.35
2022-10-05T09:30:05.865Z,41.36
2022-10-05T09:33:14.052Z,41.22
2022-10-05T09:36:01.214Z,41.14
2022-10-05T09:38:56.485Z,40.67
2022-10-05T09:41:45.661Z,39.41
2022-10-05T09:44:54.972Z,38.90
2022-10-05T09:47:52.861Z,38.68
2022-10-05T09:51:00.296Z,38.70
2022-10-05T09:53:55.082Z,37.59
2022-10-05T09:57:01.436Z,36.55
2022-10-05T10:03:07.291Z,35.45
2022-10-05T10:06:02.179Z,38.22
2022-10-05T10:09:18.085Z,37.11
2022-10-05T10:12:19.179Z,36.31
2022-10-05T10:15:11.264Z,36.77
2022-10-05T10:18:08.710Z,37.47
2022-10-05T10:20:49.945Z,36.22
2022-10-05T10:23:34.628Z,36.29
2022-10-05T10:26:30.908Z,36.83
2022-10-05T10:29:20.265Z,36.50
2022-10-05T10:31:50.210Z,36.92
2022-10-05T10:35:08.572Z,36.10
2022-10-05T10:37:41.275Z,35.32
2022-10-05T10:40:39.984Z,35.36
2022-10-05T10:43:35.558Z,35.04
2022-10-05T10:46:20.983Z,35.80
2022-10-05T10:49:02.573Z,35.36
2022-10-05T10:51:58.797Z,35.54
2022-10-05T10:54:48.053Z,35.52
2022-10-05T10:57:32.776Z,37.31
2022-10-05T11:00:44.701Z,36.03
2022-10-05T11:03:32.759Z,36.02
2022-10-05T11:06:21.958Z,35.11
2022-10-05T11:09:29.044Z,34.75
2022-10-05T11:12:22.507Z,34.91
2022-10-05T11:15:21.255Z,34.09
2022-10-05T11:18:09.682Z,35.18
2022-10-05T11:21:04.307Z,35.68
2022-10-05T11:23:52.969Z,35.82
2022-10-05T11:26:40.400Z,34.81
2022-10-05T11:29:43.561Z,35.06
2022-10-05T11:32:52.969Z,34.32
2022-10-05T11:35:53.466Z,33.48
2022-10-05T11:38:50.999Z,34.18
2022-10-05T11:41:33.381Z,33.82
2022-10-05T11:44:25.660Z,33.92
2022-10-05T11:47:32.308Z,33.13
2022-10-05T11:50:12.768Z,32.61
2022-10-05T11:52:42.467Z,31.73
2022-10-05T11:55:27.773Z,32.63
2022-10-05T11:58:08.153Z,32.70
2022-10-05T12:00:42.805Z,31.08
2022-10-05T12:03:32.430Z,32.86
2022-10-05T12:06:22.496Z,32.01
2022-10-05T12:08:52.345Z,32.24
2022-10-05T12:11:46.960Z,32.49
2022-10-05T12:14:26.887Z,32.32
2022-10-05T12:17:21.806Z,31.73
2022-10-05T12:20:12.767Z,32.38
2022-10-05T12:22:49.890Z,32.21
2022-10-05T12:25:42.416Z,32.65
2022-10-05T12:28:22.172Z,32.11
2022-10-05T12:31:08.797Z,33.50
2022-10-05T12:34:13.477Z,32.61
2022-10-05T12:37:05.617Z,31.41
2022-10-05T12:39:57.793Z,31.42
2022-10-05T12:42:41.484Z,32.10
2022-10-05T12:45:32.349Z,32.21
2022-10-05T12:48:16.345Z,32.43
2022-10-05T12:50:51.871Z,32.20
2022-10-05T12:53:31.763Z,31.91
2022-10-05T12:56:29.487Z,30.53
2022-10-05T12:59:15.097Z,31.01
2022-10-05T13:01:58.635Z,30.25
2022-10-05T13:04:50.236Z,32.21
2022-10-05T13:07:40.466Z,31.77
2022-10-05T13:10:38.735Z,31.68
2022-10-05T13:13:17.393Z,31.78
2022-10-05T13:16:17.305Z,32.27
2022-10-05T13:19:05.950Z,32.24
2022-10-05T13:22:07.125Z,33.22
2022-10-05T13:24:59.900Z,33.05
2022-10-05T13:27:37.376Z,32.53
2022-10-05T13:30:19.849Z,32.13
2022-10-05T13:33:07.186Z,32.90
2022-10-05T13:35:54.232Z,33.01
2022-10-05T13:38:34.575Z,33.12
2022-10-05T13:41:25.054Z,33.48
2022-10-05T13:43:54.647Z,33.79
2022-10-05T13:46:48.095Z,34.15
2022-10-05T13:49:54.109Z,34.95
2022-10-05T13:52:42.731Z,34.86
2022-10-05T13:55:41.777Z,34.97
2022-10-05T13:58:15.358Z,35.40
2022-10-05T14:00:54.768Z,35.28
2022-10-05T14:03:39.007Z,35.87
2022-10-05T14:06:31.068Z,35.59
2022-10-05T14:09:00.794Z,36.27
2022-10-05T14:11:48.453Z,35.80
2022-10-05T14:14:28.586Z,35.80
2022-10-05T14:17:06.059Z,36.11
2022-10-05T14:19:53.034Z,36.13
2022-10-05T14:22:25.018Z,37.07
2022-10-05T14:25:47.007Z,35.83
2022-10-05T14:28:39.837Z,35.80
2022-10-05T14:31:27.786Z,36.32
2022-10-05T14:34:17.709Z,36.40
2022-10-05T14:37:00.618Z,36.98
2022-10-05T14:39:35.652Z,37.17
2022-10-05T14:42:26.053Z,37.53
2022-10-05T14:45:13.507Z,37.28
2022-10-05T14:47:52.594Z,38.36
2022-10-05T14:50:30.065Z,39.75
2022-10-05T14:53:12.344Z,39.82
2022-10-05T14:56:11.645Z,40.15
2022-10-05T14:59:35.838Z,41.07
2022-10-05T15:02:29.582Z,42.38
2022-10-05T15:05:25.968Z,42.03
2022-10-05T15:08:03.659Z,42.49
2022-10-05T15:10:52.585Z,43.31
2022-10-05T15:13:28.946Z,43.76
2022-10-05T15:16:00.889Z,43.95
2022-10-05T15:18:57.217Z,44.16
2022-10-05T15:21:45.954Z,44.53
2022-10-05T15:24:30.942Z,44.86
2022-10-05T15:27:04.649Z,45.31
2022-10-05T15:29:47.308Z,45.08
2022-10-05T15:32:42.488Z,45.87
2022-10-05T15:35:28.391Z,46.24
2022-10-05T15:38:05.954Z,46.57
2022-10-05T15:40:52.083Z,46.49
2022-10-05T15:43:23.630Z,47.33
2022-10-05T15:46:14.668Z,48.09
2022-10-05T15:48:49.721Z,47.92
2022-10-05T15:51:36.638Z,48.38
2022-10-05T15:54:30.158Z,49.18
2022-10-05T15:57:36.994Z,49.63
2022-10-05T16:00:19.143Z,50.09
2022-10-05T16:03:26.723Z,50.81
2022-10-05T16:06:29.669Z,51.82
2022-10-05T16:09:29.277Z,52.03
2022-10-05T16:12:19.582Z,52.55
2022-10-05T16:15:16.660Z,53.19
2022-10-05T16:18:05.839Z,53.81
2022-10-05T16:20:38.848Z,53.97
2022-10-05T16:23:18.191Z,53.47
2022-10-05T16:26:05.877Z,54.04
2022-10-05T16:29:22.009Z,53.85
2022-10-05T16:31:59.555Z,54.00
2022-10-05T16:34:45.567Z,54.48
2022-10-05T16:37:30.591Z,55.04
2022-10-05T16:40:40.420Z,56.07
2022-10-05T16:43:22.971Z,56.27
2022-10-05T16:46:11.078Z,57.65
2022-10-05T16:48:50.189Z,57.57
2022-10-05T16:51:58.136Z,57.69
2022-10-05T16:54:48.131Z,58.08
2022-10-05T16:57:22.200Z,58.58
2022-10-05T17:00:15.592Z,58.67
2022-10-05T17:03:09.129Z,58.40
2022-10-05T17:05:44.786Z,59.01
2022-10-05T17:08:21.809Z,59.27
2022-10-05T17:11:17.035Z,59.39
2022-10-05T17:13:58.991Z,59.85
2022-10-05T17:16:50.762Z,60.62
2022-10-05T17:19:33.204Z,61.03
2022-10-05T17:22:26.934Z,60.78
2022-10-05T17:25:31.326Z,60.98
2022-10-05T17:28:39.422Z,60.82
2022-10-05T17:31:18.291Z,61.18
2022-10-05T17:34:27.053Z,61.23
2022-10-05T17:37:18.048Z,61.89
2022-10-05T17:39:57.070Z,62.35
2022-10-05T17:42:42.674Z,62.39
2022-10-05T17:45:14.211Z,63.20
2022-10-05T17:47:56.179Z,62.58
2022-10-05T17:51:08.267Z,62.98
2022-10-05T17:54:08.705Z,62.86
2022-10-05T17:56:56.334Z,63.24
2022-10-05T17:59:39.730Z,63.37
2022-10-05T18:02:32.682Z,63.51
2022-10-05T18:05:13.137Z,63.61
2022-10-05T18:07:49.155Z,63.69
2022-10-05T18:10:30.344Z,63.29
2022-10-05T18:13:23.211Z,63.91
2022-10-05T18:15:54.033Z,64.12
2022-10-05T18:18:56.710Z,63.82
2022-10-05T18:21:33.353Z,63.63
2022-10-05T18:24:15.329Z,63.79
2022-10-05T18:27:07.049Z,64.60
2022-10-05T18:30:08.124Z,65.40
2022-10-05T18:33:13.513Z,65.83
2022-10-05T18:35:58.757Z,65.09
2022-10-05T18:38:57.377Z,65.34
2022-10-05T18:41:45.831Z,65.71
2022-10-05T18:44:54.683Z,65.53
2022-10-05T18:48:10.148Z,65.79
2022-10-05T18:50:56.846Z,66.60
2022-10-05T18:53:40.181Z,66.72
2022-10-05T18:56:55.320Z,66.98
2022-10-05T18:59:46.963Z,66.82
2022-10-05T19:02:37.938Z,67.53
2022-10-05T19:05:49.163Z,68.06
2022-10-05T19:09:03.602Z,68.19
2022-10-05T19:11:52.482Z,67.82
2022-10-05T19:14:51.306Z,67.25
2022-10-05T19:17:26.104Z,66.95
2022-10-05T19:20:17.860Z,66.83
2022-10-05T19:22:57.105Z,67.37
2022-10-05T19:25:53.372Z,68.35
2022-10-05T19:28:37.943Z,68.45
2022-10-05T19:31:14.819Z,68.54
2022-10-05T19:34:16.921Z,68.30
2022-10-05T19:37:06.356Z,68.54
2022-10-05T19:39:43.922Z,68.74
2022-10-05T19:42:25.085Z,68.55
2022-10-05T19:45:23.490Z,68.06
2022-10-05T19:48:01.276Z,67.81
2022-10-05T19:50:34.036Z,68.01
2022-10-05T19:53:19.356Z,67.79
2022-10-05T19:55:48.077Z,68.08
2022-10-05T19:58:40.227Z,68.12
2022-10-05T20:01:11.698Z,67.94
2022-10-05T20:03:48.264Z,67.22
2022-10-05T20:06:21.940Z,67.99
2022-10-05T20:09:01.929Z,68.34
2022-10-05T20:11:49.532Z,68.18
2022-10-05T20:14:33.823Z,68.19
2022-10-05T20:17:49.037Z,68.47
2022-10-05T20:20:39.758Z,68.85
2022-10-05T20:23:30.842Z,69.31
2022-10-05T20:26:21.391Z,69.61
2022-10-05T20:28:51.982Z,69.31
2022-10-05T20:31:22.636Z,69.66
2022-10-05T20:33:52.829Z,69.93
2022-10-05T20:36:21.544Z,69.90
2022-10-05T20:38:51.800Z,69.85
2022-10-05T20:41:22.024Z,69.97
2022-10-05T20:43:52.400Z,69.85
2022-10-05T20:46:23.496Z,70.00
2022-10-05T20:48:54.228Z,69.91
2022-10-05T20:51:25.031Z,69.88
2022-10-05T20:53:59.089Z,69.86
2022-10-05T20:56:30.576Z,69.93
2022-10-05T20:59:00.838Z,69.95
2022-10-05T21:01:32.283Z,70.03
2022-10-05T21:04:07.660Z,70.28
2022-10-05T21:06:36.448Z,70.47
2022-10-05T21:09:12.035Z,70.22
2022-10-05T21:11:46.352Z,70.20
2022-10-05T21:14:17.472Z,70.08
2022-10-05T21:16:47.482Z,70.03
2022-10-05T21:19:17.919Z,70.28
2022-10-05T21:21:47.806Z,70.45
2022-10-05T21:24:17.907Z,70.86
2022-10-05T21:26:48.105Z,70.83
2022-10-05T21:29:18.194Z,70.49
2022-10-05T21:31:48.111Z,70.65
2022-10-05T21:34:17.650Z,70.68
2022-10-05T21:36:47.448Z,70.78
2022-10-05T21:39:17.619Z,70.90
2022-10-05T21:41:49.805Z,71.03
2022-10-05T21:44:20.057Z,71.32
2022-10-05T21:46:50.530Z,71.24
2022-10-05T21:49:20.781Z,71.49
2022-10-05T21:51:50.877Z,71.58
2022-10-05T21:54:23.287Z,71.66
2022-10-05T21:56:57.814Z,71.62
2022-10-05T21:59:31.721Z,71.76
2022-10-05T22:02:02.760Z,71.90
2022-10-05T22:04:32.742Z,71.75
2022-10-05T22:07:02.206Z,71.87
2022-10-05T22:09:32.048Z,72.06
2022-10-05T22:12:02.855Z,72.23
2022-10-05T22:14:33.060Z,72.18
2022-10-05T22:17:03.385Z,72.34
2022-10-05T22:19:33.267Z,72.24
2022-10-05T22:22:03.449Z,72.48
2022-10-05T22:24:33.654Z,72.31
2022-10-05T22:27:04.071Z,72.44
2022-10-05T22:29:32.937Z,72.65
2022-10-05T22:32:04.446Z,72.66
2022-10-05T22:34:34.717Z,72.85
2022-10-05T22:37:06.948Z,72.73
2022-10-05T22:39:35.770Z,72.62
2022-10-05T22:42:08.294Z,72.80
2022-10-05T22:44:39.481Z,72.94
2022-10-05T22:47:09.789Z,73.10
2022-10-05T22:49:38.602Z,73.42
2022-10-05T22:52:08.827Z,73.65
2022-10-05T22:54:39.460Z,73.69
2022-10-05T22:57:09.786Z,73.49
2022-10-05T22:59:39.938Z,73.59
2022-10-05T23:02:09.959Z,73.38
2022-10-05T23:04:40.412Z,73.42
2022-10-05T23:07:10.348Z,73.31
2022-10-05T23:09:40.402Z,72.94
2022-10-05T23:12:10.437Z,72.99
2022-10-05T23:14:40.024Z,73.01
2022-10-05T23:17:09.871Z,72.83
2022-10-05T23:19:38.702Z,72.74
2022-10-05T23:22:08.195Z,72.83
2022-10-05T23:24:38.399Z,72.94
2022-10-05T23:27:08.778Z,72.99
2022-10-05T23:29:38.936Z,73.10
2022-10-05T23:32:08.719Z,73.18
2022-10-05T23:34:39.091Z,73.33
2022-10-05T23:37:09.383Z,72.98
2022-10-05T23:39:39.569Z,72.95
2022-10-05T23:42:10.797Z,72.91
2022-10-05T23:44:41.185Z,72.79
2022-10-05T23:47:11.141Z,72.82
2022-10-05T23:49:41.253Z,72.73
2022-10-05T23:52:09.988Z,72.64
2022-10-05T23:54:40.179Z,72.44
2022-10-05T23:57:10.414Z,72.54
2022-10-05T23:59:40.665Z,72.50
